createdAt,value
2022-08-22T00:00:17.951Z,11.60
2022-08-22T00:02:21.630Z,11.20
2022-08-22T00:02:55.559Z,11.70
2022-08-22T00:02:57.845Z,9.90
2022-08-22T00:03:02.739Z,20.90
2022-08-22T00:03:08.632Z,16.60
2022-08-22T00:03:11.930Z,11.70
2022-08-22T00:03:50.577Z,12.60
2022-08-22T00:05:27.449Z,10.70
2022-08-22T00:06:53.536Z,9.80
2022-08-22T00:08:38.044Z,11.70
2022-08-22T00:10:25.286Z,10.80
2022-08-22T00:11:51.339Z,13.40
2022-08-22T00:13:06.008Z,10.90
2022-08-22T00:14:42.326Z,12.00
2022-08-22T00:16:13.809Z,12.00
2022-08-22T00:17:51.144Z,10.90
2022-08-22T00:19:25.364Z,14.60
2022-08-22T00:20:39.309Z,10.50
2022-08-22T00:22:07.227Z,10.10
2022-08-22T00:23:36.817Z,12.50
2022-08-22T00:25:25.728Z,12.20
2022-08-22T00:26:45.445Z,10.40
2022-08-22T00:28:01.515Z,8.40
2022-08-22T00:29:18.602Z,10.00
2022-08-22T00:30:27.030Z,13.00
2022-08-22T00:31:52.187Z,12.10
2022-08-22T00:33:11.918Z,9.10
2022-08-22T00:34:39.351Z,11.50
2022-08-22T00:36:00.008Z,10.70
2022-08-22T00:37:18.498Z,12.60
2022-08-22T00:38:35.755Z,8.60
2022-08-22T00:39:49.625Z,8.30
2022-08-22T00:41:04.102Z,10.10
2022-08-22T00:43:05.481Z,9.50
2022-08-22T00:44:40.754Z,9.40
2022-08-22T00:46:14.155Z,10.20
2022-08-22T00:47:38.043Z,9.30
2022-08-22T00:49:14.822Z,9.60
2022-08-22T00:51:00.761Z,8.60
2022-08-22T00:52:31.944Z,9.40
2022-08-22T00:53:56.254Z,9.90
2022-08-22T00:55:34.870Z,11.10
2022-08-22T00:57:06.582Z,11.00
2022-08-22T00:58:30.336Z,11.50
2022-08-22T00:59:41.861Z,9.40
2022-08-22T01:00:58.022Z,11.80
2022-08-22T01:03:48.770Z,10.20
2022-08-22T01:05:05.264Z,10.50
2022-08-22T01:06:24.571Z,12.10
2022-08-22T01:08:03.284Z,12.60
2022-08-22T01:09:33.727Z,8.30
2022-08-22T01:11:25.496Z,10.50
2022-08-22T01:12:45.257Z,9.60
2022-08-22T01:14:14.691Z,7.40
2022-08-22T01:15:26.747Z,8.30
2022-08-22T01:17:02.261Z,10.30
2022-08-22T01:18:39.487Z,9.80
2022-08-22T01:20:12.135Z,8.00
2022-08-22T01:21:33.501Z,8.30
2022-08-22T01:22:59.019Z,9.20
2022-08-22T01:25:04.574Z,8.30
2022-08-22T01:26:16.181Z,10.60
2022-08-22T01:27:52.594Z,10.30
2022-08-22T01:30:45.294Z,10.90
2022-08-22T01:32:32.619Z,8.90
2022-08-22T01:34:02.246Z,9.80
2022-08-22T01:35:38.305Z,11.10
2022-08-22T01:37:20.347Z,8.70
2022-08-22T01:38:53.375Z,9.20
2022-08-22T01:40:29.005Z,9.00
2022-08-22T01:42:16.833Z,10.60
2022-08-22T01:44:00.748Z,9.90
2022-08-22T01:45:24.908Z,10.50
2022-08-22T01:46:52.005Z,8.90
2022-08-22T01:48:33.747Z,7.00
2022-08-22T01:49:56.744Z,8.50
2022-08-22T01:51:27.298Z,10.10
2022-08-22T01:52:47.214Z,8.40
2022-08-22T01:54:36.432Z,10.50
2022-08-22T01:56:18.772Z,8.00
2022-08-22T01:57:29.654Z,8.60
2022-08-22T01:58:39.733Z,10.20
2022-08-22T01:59:52.663Z,10.40
2022-08-22T02:01:26.418Z,8.70
2022-08-22T02:02:48.605Z,7.80
2022-08-22T02:04:02.470Z,10.00
2022-08-22T02:05:40.523Z,8.60
2022-08-22T02:07:38.185Z,11.30
2022-08-22T02:09:18.092Z,11.00
2022-08-22T02:10:49.869Z,12.60
2022-08-22T02:12:39.568Z,14.20
2022-08-22T02:13:57.130Z,10.50
2022-08-22T02:15:29.350Z,11.50
2022-08-22T02:16:49.928Z,8.60
2022-08-22T02:19:06.744Z,8.40
2022-08-22T02:20:34.362Z,11.20
2022-08-22T02:22:19.294Z,15.70
2022-08-22T02:23:55.969Z,7.20
2022-08-22T02:25:11.773Z,10.30
2022-08-22T02:26:52.001Z,12.10
2022-08-22T02:28:16.322Z,10.00
2022-08-22T02:29:47.646Z,12.60
2022-08-22T02:31:08.182Z,11.20
2022-08-22T02:33:01.125Z,7.40
2022-08-22T02:34:46.067Z,12.80
2022-08-22T02:36:21.065Z,9.30
2022-08-22T02:37:44.217Z,11.30
2022-08-22T02:39:05.220Z,12.00
2022-08-22T02:42:04.716Z,8.30
2022-08-22T02:43:20.309Z,12.40
2022-08-22T02:44:37.216Z,8.50
2022-08-22T02:46:17.182Z,8.30
2022-08-22T02:47:30.935Z,9.00
2022-08-22T02:48:42.141Z,11.70
2022-08-22T02:50:12.848Z,12.60
2022-08-22T02:51:59.814Z,10.60
2022-08-22T02:53:13.516Z,10.40
2022-08-22T02:54:31.524Z,9.90
2022-08-22T02:56:11.656Z,9.80
2022-08-22T02:57:39.708Z,9.70
2022-08-22T02:59:29.556Z,10.90
2022-08-22T03:01:18.881Z,7.80
2022-08-22T03:02:37.986Z,9.20
2022-08-22T03:03:50.193Z,9.10
2022-08-22T03:05:05.163Z,9.70
2022-08-22T03:07:00.722Z,15.10
2022-08-22T03:08:21.087Z,9.70
2022-08-22T03:10:03.228Z,11.80
2022-08-22T03:11:23.811Z,8.70
2022-08-22T03:12:43.096Z,10.60
2022-08-22T03:14:23.290Z,7.80
2022-08-22T03:15:32.317Z,8.40
2022-08-22T03:17:02.106Z,6.60
2022-08-22T03:18:51.132Z,11.10
2022-08-22T03:20:52.459Z,9.90
2022-08-22T03:22:05.463Z,8.30
2022-08-22T03:24:09.580Z,8.10
2022-08-22T03:25:29.411Z,11.60
2022-08-22T03:27:01.332Z,13.80
2022-08-22T03:28:18.103Z,13.40
2022-08-22T03:29:38.738Z,13.60
2022-08-22T03:31:13.359Z,12.00
2022-08-22T03:32:23.069Z,12.70
2022-08-22T03:33:33.533Z,12.80
2022-08-22T03:34:56.650Z,15.80
2022-08-22T03:36:28.941Z,13.70
2022-08-22T03:37:45.172Z,10.80
2022-08-22T03:39:21.225Z,10.80
2022-08-22T03:40:44.760Z,12.80
2022-08-22T03:42:11.793Z,12.10
2022-08-22T03:43:57.611Z,8.70
2022-08-22T03:47:10.651Z,7.80
2022-08-22T03:48:40.575Z,9.80
2022-08-22T03:50:07.048Z,11.00
2022-08-22T03:51:33.782Z,11.30
2022-08-22T03:53:18.869Z,9.10
2022-08-22T03:54:59.733Z,10.90
2022-08-22T03:56:45.442Z,10.60
2022-08-22T03:58:31.924Z,9.80
2022-08-22T04:00:15.314Z,9.90
2022-08-22T04:02:00.875Z,11.00
2022-08-22T04:03:27.973Z,12.20
2022-08-22T04:05:14.142Z,9.70
2022-08-22T04:07:00.379Z,9.50
2022-08-22T04:08:48.051Z,8.90
2022-08-22T04:10:33.550Z,10.10
2022-08-22T04:12:03.138Z,8.60
2022-08-22T04:13:24.645Z,7.90
2022-08-22T04:14:46.927Z,12.60
2022-08-22T04:17:46.696Z,7.60
2022-08-22T04:19:13.763Z,13.00
2022-08-22T04:20:42.740Z,12.90
2022-08-22T04:22:41.961Z,9.70
2022-08-22T04:24:03.312Z,7.70
2022-08-22T04:25:18.362Z,8.80
2022-08-22T04:26:38.008Z,9.10
2022-08-22T04:27:57.719Z,9.00
2022-08-22T04:29:11.100Z,10.80
2022-08-22T04:30:28.939Z,9.70
2022-08-22T04:31:48.225Z,11.70
2022-08-22T04:33:21.374Z,11.60
2022-08-22T04:34:42.793Z,13.00
2022-08-22T04:36:30.312Z,13.20
2022-08-22T04:38:01.436Z,9.60
2022-08-22T04:39:37.317Z,9.50
2022-08-22T04:41:01.409Z,9.00
2022-08-22T04:42:49.357Z,7.90
2022-08-22T04:44:17.188Z,10.30
2022-08-22T04:45:37.668Z,9.10
2022-08-22T04:46:58.463Z,12.40
2022-08-22T04:48:24.138Z,13.20
2022-08-22T04:49:43.060Z,9.30
2022-08-22T04:50:52.812Z,9.80
2022-08-22T04:53:41.265Z,8.90
2022-08-22T04:55:19.944Z,9.50
2022-08-22T04:56:50.604Z,11.80
2022-08-22T04:58:33.210Z,9.30
2022-08-22T04:59:42.163Z,13.40
2022-08-22T05:01:11.755Z,12.40
2022-08-22T05:02:29.381Z,10.30
2022-08-22T05:03:46.048Z,10.50
2022-08-22T05:05:34.318Z,11.80
2022-08-22T05:06:47.992Z,9.40
2022-08-22T05:08:01.177Z,10.60
2022-08-22T05:09:17.110Z,9.00
2022-08-22T05:10:34.434Z,10.40
2022-08-22T05:11:42.007Z,9.30
2022-08-22T05:13:20.182Z,9.40
2022-08-22T05:14:32.057Z,9.30
2022-08-22T05:15:42.411Z,14.90
2022-08-22T05:16:52.295Z,9.70
2022-08-22T05:18:04.346Z,9.40
2022-08-22T05:19:16.939Z,9.40
2022-08-22T05:20:29.744Z,9.80
2022-08-22T05:21:39.375Z,9.80
2022-08-22T05:22:48.824Z,11.90
2022-08-22T05:24:09.839Z,9.60
2022-08-22T05:25:27.598Z,11.40
2022-08-22T05:26:44.854Z,7.30
2022-08-22T05:27:56.467Z,10.70
2022-08-22T05:29:09.315Z,13.00
2022-08-22T05:30:22.504Z,11.50
2022-08-22T05:31:32.635Z,12.10
2022-08-22T05:33:10.499Z,11.30
2022-08-22T05:34:21.834Z,9.50
2022-08-22T05:35:47.190Z,12.40
2022-08-22T05:37:03.543Z,10.10
2022-08-22T05:38:19.312Z,10.00
2022-08-22T05:39:28.306Z,11.50
2022-08-22T05:40:37.702Z,10.80
2022-08-22T05:41:46.115Z,10.20
2022-08-22T05:42:55.120Z,13.40
2022-08-22T05:44:06.023Z,8.50
2022-08-22T05:45:13.479Z,11.80
2022-08-22T05:46:38.595Z,9.20
2022-08-22T05:47:49.103Z,11.00
2022-08-22T05:49:01.504Z,9.30
2022-08-22T05:50:21.368Z,8.20
2022-08-22T05:51:53.751Z,9.80
2022-08-22T05:53:36.928Z,11.90
2022-08-22T05:55:00.502Z,13.20
2022-08-22T05:56:20.788Z,10.10
2022-08-22T05:57:33.969Z,9.80
2022-08-22T05:58:57.146Z,8.60
2022-08-22T06:00:24.170Z,13.30
2022-08-22T06:02:02.628Z,12.40
2022-08-22T06:03:17.581Z,9.20
2022-08-22T06:05:00.570Z,8.90
2022-08-22T06:06:17.437Z,9.70
2022-08-22T06:07:44.418Z,8.70
2022-08-22T06:09:36.659Z,10.90
2022-08-22T06:10:56.964Z,9.60
2022-08-22T06:12:26.266Z,9.30
2022-08-22T06:13:44.710Z,9.60
2022-08-22T06:15:21.084Z,9.10
2022-08-22T06:16:39.586Z,8.60
2022-08-22T06:18:08.548Z,10.90
2022-08-22T06:19:19.350Z,12.70
2022-08-22T06:20:35.021Z,10.50
2022-08-22T06:21:44.470Z,9.40
2022-08-22T06:24:06.378Z,9.20
2022-08-22T06:25:19.047Z,10.00
2022-08-22T06:26:32.310Z,11.70
2022-08-22T06:27:41.346Z,9.60
2022-08-22T06:28:55.437Z,9.30
2022-08-22T06:30:05.239Z,7.70
2022-08-22T06:31:24.936Z,9.30
2022-08-22T06:32:58.764Z,9.50
2022-08-22T06:34:24.408Z,9.00
2022-08-22T06:36:01.439Z,12.20
2022-08-22T06:37:12.131Z,8.80
2022-08-22T06:38:20.723Z,12.70
2022-08-22T06:39:36.267Z,10.90
2022-08-22T06:40:44.821Z,11.30
2022-08-22T06:42:14.519Z,9.90
2022-08-22T06:43:37.769Z,12.60
2022-08-22T06:44:52.480Z,11.70
2022-08-22T06:46:00.917Z,9.60
2022-08-22T06:47:09.758Z,9.10
2022-08-22T06:48:21.297Z,11.10
2022-08-22T06:49:31.151Z,9.60
2022-08-22T06:50:43.106Z,8.40
2022-08-22T06:51:51.488Z,9.80
2022-08-22T06:53:10.118Z,12.60
2022-08-22T06:54:22.858Z,12.10
2022-08-22T06:55:31.094Z,9.90
2022-08-22T06:56:43.993Z,9.10
2022-08-22T06:58:04.957Z,10.70
2022-08-22T06:59:18.124Z,10.60
2022-08-22T07:00:26.153Z,10.90
2022-08-22T07:01:37.540Z,11.80
2022-08-22T07:02:48.045Z,14.50
2022-08-22T07:04:00.577Z,9.50
2022-08-22T07:05:11.092Z,11.40
2022-08-22T07:06:30.289Z,9.90
2022-08-22T07:07:40.333Z,11.10
2022-08-22T07:08:47.849Z,13.90
2022-08-22T07:09:57.687Z,10.60
2022-08-22T07:11:41.025Z,9.40
2022-08-22T07:12:51.025Z,12.50
2022-08-22T07:14:12.471Z,12.30
2022-08-22T07:15:39.141Z,10.40
2022-08-22T07:17:04.844Z,11.60
2022-08-22T07:18:27.379Z,10.30
2022-08-22T07:19:42.766Z,9.90
2022-08-22T07:20:58.337Z,9.30
2022-08-22T07:22:23.021Z,14.30
2022-08-22T07:23:37.452Z,11.60
2022-08-22T07:24:48.633Z,11.70
2022-08-22T07:26:16.850Z,12.80
2022-08-22T07:27:49.487Z,11.90
2022-08-22T07:29:41.564Z,10.90
2022-08-22T07:30:53.053Z,14.30
2022-08-22T07:32:23.276Z,11.10
2022-08-22T07:33:53.327Z,11.70
2022-08-22T07:35:32.628Z,15.80
2022-08-22T07:36:47.873Z,13.50
2022-08-22T07:38:01.079Z,13.70
2022-08-22T07:39:44.894Z,12.60
2022-08-22T07:40:59.039Z,12.20
2022-08-22T07:42:20.385Z,11.50
2022-08-22T07:43:55.774Z,13.60
2022-08-22T07:45:15.503Z,17.40
2022-08-22T07:46:50.117Z,10.50
2022-08-22T07:48:25.023Z,11.80
2022-08-22T07:49:58.686Z,12.20
2022-08-22T07:51:08.935Z,9.70
2022-08-22T07:52:16.670Z,13.70
2022-08-22T07:53:44.348Z,11.20
2022-08-22T07:55:05.072Z,11.20
2022-08-22T07:56:27.916Z,12.00
2022-08-22T07:57:41.313Z,11.60
2022-08-22T07:58:50.208Z,12.70
2022-08-22T08:00:00.338Z,14.90
2022-08-22T08:01:12.029Z,13.50
2022-08-22T08:02:20.542Z,13.30
2022-08-22T08:03:29.761Z,11.30
2022-08-22T08:04:40.382Z,15.10
2022-08-22T08:05:48.860Z,15.40
2022-08-22T08:06:58.084Z,12.70
2022-08-22T08:08:33.183Z,18.00
2022-08-22T08:09:45.852Z,12.80
2022-08-22T08:10:53.093Z,17.90
2022-08-22T08:12:00.595Z,13.90
2022-08-22T08:13:11.494Z,13.70
2022-08-22T08:14:18.853Z,12.80
2022-08-22T08:15:26.357Z,12.30
2022-08-22T08:16:50.091Z,8.90
2022-08-22T08:18:03.080Z,15.20
2022-08-22T08:19:12.118Z,16.80
2022-08-22T08:20:22.739Z,11.80
2022-08-22T08:21:40.031Z,10.90
2022-08-22T08:22:49.332Z,11.20
2022-08-22T08:23:57.877Z,14.00
2022-08-22T08:25:05.104Z,12.10
2022-08-22T08:26:22.268Z,12.50
2022-08-22T08:27:51.258Z,12.60
2022-08-22T08:28:59.928Z,11.40
2022-08-22T08:30:51.288Z,11.50
2022-08-22T08:31:58.521Z,14.50
2022-08-22T08:33:25.334Z,12.50
2022-08-22T08:34:35.449Z,15.60
2022-08-22T08:36:03.031Z,13.60
2022-08-22T08:37:19.644Z,11.30
2022-08-22T08:38:29.340Z,15.50
2022-08-22T08:39:41.447Z,10.60
2022-08-22T08:41:25.684Z,14.60
2022-08-22T08:43:18.829Z,12.20
2022-08-22T08:45:02.745Z,10.90
2022-08-22T08:46:26.844Z,11.60
2022-08-22T08:47:47.998Z,15.80
2022-08-22T08:49:01.971Z,12.90
2022-08-22T08:50:36.202Z,13.80
2022-08-22T08:51:59.328Z,15.20
2022-08-22T08:53:25.620Z,15.80
2022-08-22T08:54:53.208Z,16.10
2022-08-22T08:56:25.586Z,13.30
2022-08-22T08:57:51.794Z,17.00
2022-08-22T08:59:23.984Z,13.70
2022-08-22T09:01:12.960Z,17.90
2022-08-22T09:02:42.475Z,15.20
2022-08-22T09:04:19.327Z,15.10
2022-08-22T09:05:56.417Z,16.10
2022-08-22T09:07:26.839Z,17.20
2022-08-22T09:08:50.679Z,13.30
2022-08-22T09:10:27.342Z,17.90
2022-08-22T09:12:13.702Z,14.20
2022-08-22T09:13:40.981Z,14.70
2022-08-22T09:15:14.124Z,15.20
2022-08-22T09:16:49.060Z,15.90
2022-08-22T09:18:20.312Z,13.60
2022-08-22T09:19:30.785Z,13.70
2022-08-22T09:21:00.403Z,13.40
2022-08-22T09:22:22.983Z,17.10
2022-08-22T09:23:40.624Z,14.80
2022-08-22T09:25:18.463Z,15.60
2022-08-22T09:26:57.207Z,19.00
2022-08-22T09:28:23.326Z,16.00
2022-08-22T09:29:51.450Z,14.20
2022-08-22T09:32:59.746Z,15.50
2022-08-22T09:34:26.843Z,17.00
2022-08-22T09:35:53.704Z,16.60
2022-08-22T09:37:05.950Z,17.70
2022-08-22T09:38:40.907Z,14.60
2022-08-22T09:39:57.387Z,16.20
2022-08-22T09:41:25.517Z,17.30
2022-08-22T09:43:01.300Z,20.40
2022-08-22T09:44:33.517Z,15.90
2022-08-22T09:46:01.878Z,15.70
2022-08-22T09:47:31.333Z,14.00
2022-08-22T09:48:52.553Z,14.70
2022-08-22T09:50:06.426Z,13.80
2022-08-22T09:51:32.437Z,14.30
2022-08-22T09:53:13.004Z,16.50
2022-08-22T09:54:32.706Z,15.10
2022-08-22T09:56:15.010Z,15.60
2022-08-22T09:57:41.299Z,18.40
2022-08-22T09:59:13.540Z,17.10
2022-08-22T10:00:24.720Z,15.10
2022-08-22T10:01:56.124Z,14.70
2022-08-22T10:03:38.931Z,17.30
2022-08-22T10:04:58.301Z,16.80
2022-08-22T10:06:09.671Z,15.40
2022-08-22T10:07:40.492Z,17.60
2022-08-22T10:09:35.907Z,20.40
2022-08-22T10:11:21.421Z,18.50
2022-08-22T10:12:53.178Z,17.30
2022-08-22T10:14:22.312Z,18.70
2022-08-22T10:15:43.998Z,18.70
2022-08-22T10:17:03.052Z,13.10
2022-08-22T10:18:35.266Z,16.00
2022-08-22T10:19:48.864Z,15.70
2022-08-22T10:21:10.955Z,17.50
2022-08-22T10:22:30.379Z,16.00
2022-08-22T10:23:55.124Z,14.40
2022-08-22T10:25:02.604Z,17.60
2022-08-22T10:26:46.200Z,14.50
2022-08-22T10:28:53.010Z,19.10
2022-08-22T10:30:09.469Z,17.90
2022-08-22T10:31:26.113Z,14.20
2022-08-22T10:32:42.922Z,16.50
2022-08-22T10:34:10.460Z,17.10
2022-08-22T10:35:25.573Z,17.90
2022-08-22T10:37:10.268Z,15.70
2022-08-22T10:38:55.673Z,17.20
2022-08-22T10:40:20.908Z,15.40
2022-08-22T10:41:32.761Z,18.40
2022-08-22T10:42:55.872Z,16.20
2022-08-22T10:44:21.101Z,17.50
2022-08-22T10:45:40.062Z,20.80
2022-08-22T10:47:08.360Z,19.10
2022-08-22T10:48:34.137Z,16.10
2022-08-22T10:50:33.765Z,18.00
2022-08-22T10:51:49.157Z,18.40
2022-08-22T10:53:24.668Z,22.10
2022-08-22T10:55:47.857Z,16.60
2022-08-22T10:57:20.679Z,16.80
2022-08-22T10:58:31.707Z,18.30
2022-08-22T11:00:17.698Z,22.80
2022-08-22T11:01:37.515Z,19.00
2022-08-22T11:03:35.667Z,21.70
2022-08-22T11:05:18.726Z,22.70
2022-08-22T11:06:38.799Z,22.30
2022-08-22T11:08:16.557Z,25.70
2022-08-22T11:09:41.661Z,21.00
2022-08-22T11:11:12.020Z,21.90
2022-08-22T11:12:42.124Z,22.80
2022-08-22T11:14:32.779Z,20.20
2022-08-22T11:16:16.325Z,23.00
2022-08-22T11:17:59.998Z,20.10
2022-08-22T11:19:27.175Z,21.80
2022-08-22T11:20:50.338Z,22.80
2022-08-22T11:22:36.287Z,21.70
2022-08-22T11:24:08.964Z,23.90
2022-08-22T11:26:15.075Z,22.30
2022-08-22T11:28:19.691Z,18.60
2022-08-22T11:29:53.205Z,22.30
2022-08-22T11:31:31.643Z,23.10
2022-08-22T11:33:09.722Z,24.10
2022-08-22T11:34:26.207Z,23.50
2022-08-22T11:36:09.991Z,24.20
2022-08-22T11:37:43.343Z,20.30
2022-08-22T11:39:25.028Z,21.70
2022-08-22T11:40:49.596Z,23.90
2022-08-22T11:42:04.727Z,18.60
2022-08-22T11:43:32.588Z,21.60
2022-08-22T11:44:56.765Z,19.30
2022-08-22T11:46:35.846Z,20.60
2022-08-22T11:47:55.069Z,24.00
2022-08-22T11:49:25.628Z,23.50
2022-08-22T11:51:24.852Z,24.20
2022-08-22T11:52:54.451Z,23.70
2022-08-22T11:54:31.080Z,18.90
2022-08-22T11:56:10.401Z,23.10
2022-08-22T11:57:37.820Z,24.90
2022-08-22T11:59:17.606Z,20.70
2022-08-22T12:01:03.801Z,21.80
2022-08-22T12:03:03.214Z,22.00
2022-08-22T12:04:13.753Z,26.20
2022-08-22T12:05:26.394Z,23.00
2022-08-22T12:06:47.496Z,20.60
2022-08-22T12:08:26.428Z,26.10
2022-08-22T12:09:53.887Z,20.90
2022-08-22T12:11:08.367Z,19.60
2022-08-22T12:12:23.377Z,20.80
2022-08-22T12:14:04.033Z,23.10
2022-08-22T12:15:20.141Z,20.10
2022-08-22T12:17:07.130Z,19.20
2022-08-22T12:18:53.494Z,20.50
2022-08-22T12:20:35.476Z,21.70
2022-08-22T12:22:19.667Z,19.70
2022-08-22T12:23:49.773Z,21.90
2022-08-22T12:25:22.533Z,24.90
2022-08-22T12:27:08.050Z,26.50
2022-08-22T12:28:57.404Z,24.70
2022-08-22T12:30:32.279Z,24.60
2022-08-22T12:32:02.970Z,23.50
2022-08-22T12:33:24.673Z,22.30
2022-08-22T12:34:53.021Z,19.60
2022-08-22T12:36:18.719Z,19.30
2022-08-22T12:37:53.153Z,19.50
2022-08-22T12:39:54.242Z,20.10
2022-08-22T12:41:28.181Z,18.00
2022-08-22T12:43:04.065Z,20.80
2022-08-22T12:44:45.535Z,23.50
2022-08-22T12:46:30.711Z,18.70
2022-08-22T12:48:02.538Z,20.70
2022-08-22T12:49:38.530Z,20.80
2022-08-22T12:50:50.259Z,24.30
2022-08-22T12:52:26.625Z,20.80
2022-08-22T12:53:57.655Z,23.80
2022-08-22T12:55:25.281Z,23.60
2022-08-22T12:56:47.391Z,17.70
2022-08-22T12:58:42.856Z,24.00
2022-08-22T12:59:54.498Z,20.60
2022-08-22T13:01:08.290Z,24.60
2022-08-22T13:03:38.376Z,28.20
2022-08-22T13:04:58.893Z,26.10
2022-08-22T13:06:13.755Z,19.80
2022-08-22T13:07:29.109Z,23.00
2022-08-22T13:08:40.195Z,18.50
2022-08-22T13:10:03.728Z,22.80
2022-08-22T13:11:23.116Z,18.70
2022-08-22T13:12:47.150Z,19.90
2022-08-22T13:13:59.329Z,19.10
2022-08-22T13:15:36.054Z,24.50
2022-08-22T13:16:49.018Z,22.20
2022-08-22T13:18:18.841Z,19.60
2022-08-22T13:19:33.566Z,21.30
2022-08-22T13:20:43.759Z,24.60
2022-08-22T13:22:04.950Z,19.70
2022-08-22T13:23:20.657Z,21.10
2022-08-22T13:24:51.833Z,24.40
2022-08-22T13:26:33.060Z,19.70
2022-08-22T13:28:02.184Z,24.10
2022-08-22T13:29:26.895Z,20.50
2022-08-22T13:30:40.604Z,19.90
2022-08-22T13:31:48.758Z,23.40
2022-08-22T13:33:40.856Z,19.70
2022-08-22T13:34:53.864Z,23.40
2022-08-22T13:36:10.834Z,20.10
2022-08-22T13:37:24.523Z,24.30
2022-08-22T13:38:53.548Z,21.20
2022-08-22T13:40:05.965Z,24.30
2022-08-22T13:41:15.501Z,20.00
2022-08-22T13:42:30.105Z,22.20
2022-08-22T13:45:14.714Z,20.60
2022-08-22T13:46:31.368Z,23.10
2022-08-22T13:47:54.301Z,26.60
2022-08-22T13:49:04.954Z,25.10
2022-08-22T13:50:21.004Z,23.30
2022-08-22T13:51:31.493Z,21.70
2022-08-22T13:52:45.830Z,23.30
2022-08-22T13:54:51.107Z,26.80
2022-08-22T13:56:06.578Z,22.30
2022-08-22T13:57:51.956Z,21.40
2022-08-22T13:59:01.868Z,18.90
2022-08-22T14:00:36.577Z,24.60
2022-08-22T14:02:01.828Z,22.60
2022-08-22T14:03:23.308Z,22.20
2022-08-22T14:04:37.684Z,18.40
2022-08-22T14:05:53.302Z,24.10
2022-08-22T14:07:06.624Z,21.00
2022-08-22T14:08:36.708Z,18.60
2022-08-22T14:10:02.931Z,21.90
2022-08-22T14:11:33.836Z,20.30
2022-08-22T14:12:51.285Z,20.80
2022-08-22T14:14:01.777Z,20.70
2022-08-22T14:15:10.364Z,30.30
2022-08-22T14:16:36.777Z,19.90
2022-08-22T14:17:48.380Z,18.70
2022-08-22T14:19:08.294Z,20.60
2022-08-22T14:22:07.320Z,19.60
2022-08-22T14:23:31.175Z,18.50
2022-08-22T14:24:57.471Z,16.80
2022-08-22T14:26:07.706Z,16.80
2022-08-22T14:27:54.562Z,16.90
2022-08-22T14:29:05.800Z,17.20
2022-08-22T14:30:24.423Z,19.90
2022-08-22T14:31:33.580Z,16.40
2022-08-22T14:32:50.027Z,18.40
2022-08-22T14:35:35.276Z,24.10
2022-08-22T14:37:17.022Z,20.30
2022-08-22T14:38:46.310Z,21.10
2022-08-22T14:40:03.842Z,22.20
2022-08-22T14:41:24.795Z,18.30
2022-08-22T14:42:51.230Z,16.40
2022-08-22T14:44:11.610Z,19.20
2022-08-22T14:45:48.034Z,20.60
2022-08-22T14:47:03.712Z,18.50
2022-08-22T14:48:32.600Z,18.50
2022-08-22T14:49:57.349Z,19.50
2022-08-22T14:51:11.542Z,17.30
2022-08-22T14:52:45.902Z,20.60
2022-08-22T14:53:54.338Z,16.90
2022-08-22T14:55:31.867Z,22.00
2022-08-22T14:56:41.128Z,22.10
2022-08-22T14:57:54.615Z,18.70
2022-08-22T14:59:06.878Z,20.10
2022-08-22T15:00:16.087Z,21.50
2022-08-22T15:01:29.801Z,21.40
2022-08-22T15:02:41.438Z,20.70
2022-08-22T15:04:21.870Z,23.30
2022-08-22T15:05:31.571Z,20.00
2022-08-22T15:06:58.269Z,21.90
2022-08-22T15:08:07.534Z,21.30
2022-08-22T15:09:40.565Z,20.00
2022-08-22T15:11:07.327Z,19.00
2022-08-22T15:12:36.298Z,22.80
2022-08-22T15:14:14.578Z,22.90
2022-08-22T15:15:54.303Z,20.90
2022-08-22T15:17:07.909Z,26.60
2022-08-22T15:18:35.316Z,22.60
2022-08-22T15:19:52.177Z,19.30
2022-08-22T15:21:14.236Z,18.00
2022-08-22T15:22:29.425Z,19.70
2022-08-22T15:23:45.446Z,24.00
2022-08-22T15:25:03.241Z,22.10
2022-08-22T15:26:13.208Z,18.30
2022-08-22T15:27:22.877Z,19.70
2022-08-22T15:28:49.719Z,21.10
2022-08-22T15:30:18.764Z,19.00
2022-08-22T15:31:31.719Z,23.10
2022-08-22T15:32:41.750Z,22.70
2022-08-22T15:33:49.832Z,23.00
2022-08-22T15:35:41.709Z,22.50
2022-08-22T15:37:32.633Z,25.30
2022-08-22T15:38:47.953Z,21.50
2022-08-22T15:40:14.730Z,22.50
2022-08-22T15:41:36.061Z,21.90
2022-08-22T15:42:52.300Z,21.70
2022-08-22T15:44:32.371Z,24.60
2022-08-22T15:45:41.777Z,24.60
2022-08-22T15:47:02.672Z,22.00
2022-08-22T15:48:14.875Z,22.30
2022-08-22T15:49:22.893Z,21.80
2022-08-22T15:51:09.426Z,26.60
2022-08-22T15:52:34.014Z,22.90
2022-08-22T15:53:49.543Z,23.00
2022-08-22T15:55:20.180Z,25.50
2022-08-22T15:56:29.752Z,26.60
2022-08-22T15:57:40.896Z,19.80
2022-08-22T15:58:52.096Z,27.30
2022-08-22T16:00:13.644Z,24.60
2022-08-22T16:01:26.602Z,25.30
2022-08-22T16:02:39.898Z,26.30
2022-08-22T16:04:07.967Z,25.60
2022-08-22T16:05:25.706Z,21.30
2022-08-22T16:06:50.500Z,26.60
2022-08-22T16:08:07.599Z,19.50
2022-08-22T16:09:39.502Z,21.80
2022-08-22T16:10:56.287Z,23.10
2022-08-22T16:12:08.396Z,21.80
2022-08-22T16:13:39.398Z,21.90
2022-08-22T16:14:51.995Z,22.70
2022-08-22T16:16:11.064Z,24.00
2022-08-22T16:17:34.641Z,23.50
2022-08-22T16:18:45.684Z,28.20
2022-08-22T16:20:19.429Z,23.40
2022-08-22T16:21:29.620Z,20.90
2022-08-22T16:23:02.294Z,20.80
2022-08-22T16:24:15.996Z,25.90
2022-08-22T16:25:50.798Z,25.40
2022-08-22T16:26:58.147Z,21.70
2022-08-22T16:28:08.147Z,21.90
2022-08-22T16:29:30.299Z,27.80
2022-08-22T16:30:45.460Z,23.40
2022-08-22T16:31:55.641Z,23.00
2022-08-22T16:33:03.923Z,22.50
2022-08-22T16:34:40.169Z,21.50
2022-08-22T16:36:19.895Z,22.20
2022-08-22T16:38:42.846Z,22.00
2022-08-22T16:39:54.566Z,26.60
2022-08-22T16:41:06.176Z,26.40
2022-08-22T16:42:25.537Z,26.30
2022-08-22T16:43:33.674Z,28.80
2022-08-22T16:45:06.708Z,24.80
2022-08-22T16:46:36.446Z,24.80
2022-08-22T16:48:02.457Z,28.70
2022-08-22T16:49:12.478Z,27.20
2022-08-22T16:50:25.488Z,26.80
2022-08-22T16:51:35.073Z,23.60
2022-08-22T16:52:54.693Z,26.00
2022-08-22T16:54:45.356Z,23.20
2022-08-22T16:56:23.407Z,24.90
2022-08-22T16:58:04.932Z,28.10
2022-08-22T16:59:59.869Z,30.10
2022-08-22T17:01:23.744Z,30.00
2022-08-22T17:03:09.961Z,26.80
2022-08-22T17:04:24.408Z,22.30
2022-08-22T17:05:53.407Z,26.90
2022-08-22T17:07:38.334Z,32.30
2022-08-22T17:09:07.328Z,30.70
2022-08-22T17:11:00.002Z,28.30
2022-08-22T17:12:22.748Z,30.30
2022-08-22T17:13:54.895Z,31.00
2022-08-22T17:15:22.210Z,28.20
2022-08-22T17:16:54.096Z,32.90
2022-08-22T17:18:27.148Z,34.50
2022-08-22T17:20:02.868Z,28.50
2022-08-22T17:21:13.355Z,23.60
2022-08-22T17:22:45.884Z,25.50
2022-08-22T17:24:31.595Z,27.50
2022-08-22T17:26:18.892Z,30.10
2022-08-22T17:27:40.415Z,31.40
2022-08-22T17:29:05.991Z,29.30
2022-08-22T17:30:37.984Z,27.80
2022-08-22T17:32:04.156Z,33.20
2022-08-22T17:33:51.891Z,29.60
2022-08-22T17:35:41.509Z,35.10
2022-08-22T17:37:04.043Z,33.00
2022-08-22T17:38:54.226Z,27.40
2022-08-22T17:40:40.719Z,28.90
2022-08-22T17:42:00.551Z,30.70
2022-08-22T17:43:51.185Z,32.80
2022-08-22T17:45:43.583Z,32.60
2022-08-22T17:46:55.870Z,33.30
2022-08-22T17:48:15.050Z,30.60
2022-08-22T17:49:45.061Z,34.90
2022-08-22T17:51:26.536Z,31.00
2022-08-22T17:52:42.858Z,31.30
2022-08-22T17:53:52.676Z,34.10
2022-08-22T17:55:08.464Z,30.00
2022-08-22T17:56:21.644Z,31.00
2022-08-22T17:58:37.609Z,29.80
2022-08-22T17:59:57.951Z,34.50
2022-08-22T18:01:17.994Z,27.50
2022-08-22T18:03:07.070Z,32.60
2022-08-22T18:04:34.909Z,32.50
2022-08-22T18:06:21.579Z,31.90
2022-08-22T18:08:00.031Z,30.40
2022-08-22T18:09:18.629Z,38.90
2022-08-22T18:11:01.787Z,27.30
2022-08-22T18:12:19.614Z,25.50
2022-08-22T18:14:27.352Z,34.20
2022-08-22T18:16:06.400Z,31.80
2022-08-22T18:17:35.102Z,34.50
2022-08-22T18:19:10.100Z,32.10
2022-08-22T18:20:49.202Z,33.50
2022-08-22T18:22:30.226Z,37.10
2022-08-22T18:23:43.150Z,31.80
2022-08-22T18:25:06.321Z,38.30
2022-08-22T18:26:46.757Z,34.50
2022-08-22T18:28:23.249Z,30.00
2022-08-22T18:29:57.356Z,29.30
2022-08-22T18:31:18.953Z,28.80
2022-08-22T18:32:59.581Z,27.30
2022-08-22T18:34:50.793Z,30.00
2022-08-22T18:36:25.544Z,34.90
2022-08-22T18:37:49.520Z,37.00
2022-08-22T18:39:08.337Z,28.50
2022-08-22T18:40:55.865Z,28.00
2022-08-22T18:42:14.223Z,30.70
2022-08-22T18:43:44.821Z,30.90
2022-08-22T18:44:53.497Z,33.90
2022-08-22T18:46:07.866Z,30.90
2022-08-22T18:47:39.728Z,30.40